sensor_id;sensor_type;location;lat;lon;timestamp;temperature;humidity
50560;DHT22;36510;52.610;13.468;2022-08-04T00:00:39;25.40;26.80
50560;DHT22;36510;52.610;13.468;2022-08-04T00:05:51;25.40;26.70
50560;DHT22;36510;52.610;13.468;2022-08-04T00:10:48;25.30;27.20
50560;DHT22;36510;52.610;13.468;2022-08-04T00:15:40;25.30;27.60
50560;DHT22;36510;52.610;13.468;2022-08-04T00:20:38;25.30;27.10
50560;DHT22;36510;52.610;13.468;2022-08-04T00:25:30;25.20;27.40
50560;DHT22;36510;52.610;13.468;2022-08-04T00:30:20;25.20;27.40
50560;DHT22;36510;52.610;13.468;2022-08-04T00:35:15;25.10;27.90
50560;DHT22;36510;52.610;13.468;2022-08-04T00:45:51;25.00;27.60
50560;DHT22;36510;52.610;13.468;2022-08-04T00:51:00;25.00;27.20
50560;DHT22;36510;52.610;13.468;2022-08-04T00:56:14;24.90;27.60
50560;DHT22;36510;52.610;13.468;2022-08-04T01:06:40;24.90;28.80
50560;DHT22;36510;52.610;13.468;2022-08-04T01:12:22;25.00;28.20
50560;DHT22;36510;52.610;13.468;2022-08-04T01:17:27;24.90;28.50
50560;DHT22;36510;52.610;13.468;2022-08-04T01:42:38;24.50;28.90
50560;DHT22;36510;52.610;13.468;2022-08-04T01:47:33;24.40;29.00
50560;DHT22;36510;52.610;13.468;2022-08-04T01:52:26;24.30;28.90
50560;DHT22;36510;52.610;13.468;2022-08-04T01:57:17;24.30;28.70
50560;DHT22;36510;52.610;13.468;2022-08-04T02:02:08;24.40;28.50
50560;DHT22;36510;52.610;13.468;2022-08-04T02:12:48;24.30;28.30
50560;DHT22;36510;52.610;13.468;2022-08-04T02:17:56;24.30;27.90
50560;DHT22;36510;52.610;13.468;2022-08-04T02:22:58;24.20;28.20
50560;DHT22;36510;52.610;13.468;2022-08-04T02:27:55;24.10;28.30
50560;DHT22;36510;52.610;13.468;2022-08-04T02:32:51;24.10;28.60
50560;DHT22;36510;52.610;13.468;2022-08-04T02:37:49;24.00;29.00
50560;DHT22;36510;52.610;13.468;2022-08-04T02:42:45;24.00;29.10
50560;DHT22;36510;52.610;13.468;2022-08-04T02:47:36;23.80;29.50
50560;DHT22;36510;52.610;13.468;2022-08-04T02:52:28;23.80;29.80
50560;DHT22;36510;52.610;13.468;2022-08-04T02:57:23;23.70;29.30
50560;DHT22;36510;52.610;13.468;2022-08-04T03:02:15;23.70;29.40
50560;DHT22;36510;52.610;13.468;2022-08-04T03:12:49;23.70;29.70
50560;DHT22;36510;52.610;13.468;2022-08-04T03:18:00;23.60;29.80
50560;DHT22;36510;52.610;13.468;2022-08-04T03:33:08;23.40;29.80
50560;DHT22;36510;52.610;13.468;2022-08-04T03:48:26;23.40;29.70
50560;DHT22;36510;52.610;13.468;2022-08-04T03:53:35;23.20;30.30
50560;DHT22;36510;52.610;13.468;2022-08-04T03:58:38;23.20;30.00
50560;DHT22;36510;52.610;13.468;2022-08-04T04:19:12;23.10;30.00
50560;DHT22;36510;52.610;13.468;2022-08-04T04:30:10;23.30;29.50
50560;DHT22;36510;52.610;13.468;2022-08-04T04:40:47;23.40;29.20
50560;DHT22;36510;52.610;13.468;2022-08-04T04:46:02;23.50;27.80
50560;DHT22;36510;52.610;13.468;2022-08-04T04:51:08;23.60;27.10
50560;DHT22;36510;52.610;13.468;2022-08-04T04:56:06;23.60;27.30
50560;DHT22;36510;52.610;13.468;2022-08-04T05:05:59;23.80;26.50
50560;DHT22;36510;52.610;13.468;2022-08-04T05:11:14;23.90;26.20
50560;DHT22;36510;52.610;13.468;2022-08-04T05:16:36;24.10;26.10
50560;DHT22;36510;52.610;13.468;2022-08-04T05:21:44;24.10;26.30
50560;DHT22;36510;52.610;13.468;2022-08-04T05:26:50;24.30;25.90
50560;DHT22;36510;52.610;13.468;2022-08-04T05:31:45;24.30;25.90
50560;DHT22;36510;52.610;13.468;2022-08-04T05:36:50;24.40;26.00
50560;DHT22;36510;52.610;13.468;2022-08-04T05:41:42;24.60;25.60
50560;DHT22;36510;52.610;13.468;2022-08-04T05:46:34;24.80;25.60
50560;DHT22;36510;52.610;13.468;2022-08-04T05:51:26;24.90;25.30
50560;DHT22;36510;52.610;13.468;2022-08-04T05:56:17;25.10;25.30
50560;DHT22;36510;52.610;13.468;2022-08-04T06:01:09;25.30;24.80
50560;DHT22;36510;52.610;13.468;2022-08-04T06:06:01;25.80;23.90
50560;DHT22;36510;52.610;13.468;2022-08-04T06:10:54;25.90;23.60
50560;DHT22;36510;52.610;13.468;2022-08-04T06:15:49;26.00;22.80
50560;DHT22;36510;52.610;13.468;2022-08-04T06:20:42;26.30;22.40
50560;DHT22;36510;52.610;13.468;2022-08-04T06:25:42;26.30;22.30
50560;DHT22;36510;52.610;13.468;2022-08-04T06:30:35;26.40;22.20
50560;DHT22;36510;52.610;13.468;2022-08-04T06:35:27;26.60;21.70
50560;DHT22;36510;52.610;13.468;2022-08-04T06:40:21;27.10;20.60
50560;DHT22;36510;52.610;13.468;2022-08-04T06:45:12;27.60;19.90
50560;DHT22;36510;52.610;13.468;2022-08-04T06:50:04;27.60;19.40
50560;DHT22;36510;52.610;13.468;2022-08-04T06:54:55;27.70;19.00
50560;DHT22;36510;52.610;13.468;2022-08-04T06:59:48;27.80;17.70
50560;DHT22;36510;52.610;13.468;2022-08-04T07:04:41;28.30;16.40
50560;DHT22;36510;52.610;13.468;2022-08-04T07:09:32;28.70;14.80
50560;DHT22;36510;52.610;13.468;2022-08-04T07:14:22;28.70;15.70
50560;DHT22;36510;52.610;13.468;2022-08-04T07:19:16;28.90;16.20
50560;DHT22;36510;52.610;13.468;2022-08-04T07:24:06;28.80;15.40
50560;DHT22;36510;52.610;13.468;2022-08-04T07:28:57;29.00;15.20
50560;DHT22;36510;52.610;13.468;2022-08-04T07:33:49;29.30;14.90
50560;DHT22;36510;52.610;13.468;2022-08-04T07:38:41;29.50;13.60
50560;DHT22;36510;52.610;13.468;2022-08-04T07:43:32;29.90;13.40
50560;DHT22;36510;52.610;13.468;2022-08-04T07:48:24;29.80;12.70
50560;DHT22;36510;52.610;13.468;2022-08-04T07:53:15;30.10;12.30
50560;DHT22;36510;52.610;13.468;2022-08-04T07:58:06;30.50;11.70
50560;DHT22;36510;52.610;13.468;2022-08-04T08:02:57;31.10;9.90
50560;DHT22;36510;52.610;13.468;2022-08-04T08:07:49;31.60;10.20
50560;DHT22;36510;52.610;13.468;2022-08-04T08:12:41;31.80;10.30
50560;DHT22;36510;52.610;13.468;2022-08-04T08:17:32;34.00;5.80
50560;DHT22;36510;52.610;13.468;2022-08-04T08:22:23;37.10;1.00
50560;DHT22;36510;52.610;13.468;2022-08-04T08:27:14;39.40;1.00
50560;DHT22;36510;52.610;13.468;2022-08-04T08:32:06;40.00;1.00
50560;DHT22;36510;52.610;13.468;2022-08-04T08:37:18;38.80;1.00
50560;DHT22;36510;52.610;13.468;2022-08-04T08:52:57;34.20;4.50
50560;DHT22;36510;52.610;13.468;2022-08-04T08:58:08;33.50;4.60
50560;DHT22;36510;52.610;13.468;2022-08-04T09:07:59;33.00;5.00
50560;DHT22;36510;52.610;13.468;2022-08-04T09:13:01;33.00;5.30
50560;DHT22;36510;52.610;13.468;2022-08-04T09:18:02;33.10;4.90
50560;DHT22;36510;52.610;13.468;2022-08-04T09:23:15;33.30;4.60
50560;DHT22;36510;52.610;13.468;2022-08-04T09:33:23;33.30;4.80
50560;DHT22;36510;52.610;13.468;2022-08-04T09:38:34;33.60;4.40
50560;DHT22;36510;52.610;13.468;2022-08-04T09:44:00;33.30;4.90
50560;DHT22;36510;52.610;13.468;2022-08-04T09:49:24;33.90;2.70
50560;DHT22;36510;52.610;13.468;2022-08-04T09:54:40;33.60;4.10
50560;DHT22;36510;52.610;13.468;2022-08-04T10:04:32;34.10;3.90
50560;DHT22;36510;52.610;13.468;2022-08-04T10:09:51;35.40;1.10
50560;DHT22;36510;52.610;13.468;2022-08-04T10:14:51;35.90;1.00
50560;DHT22;36510;52.610;13.468;2022-08-04T10:19:43;36.10;1.00
50560;DHT22;36510;52.610;13.468;2022-08-04T10:29:46;35.90;1.00
50560;DHT22;36510;52.610;13.468;2022-08-04T10:34:58;36.50;1.00
50560;DHT22;36510;52.610;13.468;2022-08-04T10:40:04;36.70;1.00
50560;DHT22;36510;52.610;13.468;2022-08-04T10:45:24;36.90;1.00
50560;DHT22;36510;52.610;13.468;2022-08-04T10:50:17;37.10;1.00
50560;DHT22;36510;52.610;13.468;2022-08-04T10:55:19;37.20;1.00
50560;DHT22;36510;52.610;13.468;2022-08-04T11:00:22;37.40;1.00
50560;DHT22;36510;52.610;13.468;2022-08-04T11:05:46;37.60;1.00
50560;DHT22;36510;52.610;13.468;2022-08-04T11:10:46;37.60;1.00
50560;DHT22;36510;52.610;13.468;2022-08-04T11:15:44;37.40;1.00
50560;DHT22;36510;52.610;13.468;2022-08-04T11:20:45;37.20;1.00
50560;DHT22;36510;52.610;13.468;2022-08-04T11:25:51;37.30;1.00
50560;DHT22;36510;52.610;13.468;2022-08-04T11:36:09;37.40;1.00
50560;DHT22;36510;52.610;13.468;2022-08-04T11:41:08;37.50;1.00
50560;DHT22;36510;52.610;13.468;2022-08-04T11:46:06;37.00;1.00
50560;DHT22;36510;52.610;13.468;2022-08-04T11:50:58;37.00;1.00
50560;DHT22;36510;52.610;13.468;2022-08-04T11:55:53;36.70;1.00
50560;DHT22;36510;52.610;13.468;2022-08-04T12:06:24;37.00;1.00
50560;DHT22;36510;52.610;13.468;2022-08-04T12:11:48;37.20;1.00
50560;DHT22;36510;52.610;13.468;2022-08-04T12:16:47;37.30;1.00
50560;DHT22;36510;52.610;13.468;2022-08-04T12:21:46;36.80;1.00
50560;DHT22;36510;52.610;13.468;2022-08-04T12:26:42;36.90;1.00
50560;DHT22;36510;52.610;13.468;2022-08-04T12:31:48;37.10;1.00
50560;DHT22;36510;52.610;13.468;2022-08-04T12:37:05;37.00;1.00
50560;DHT22;36510;52.610;13.468;2022-08-04T12:42:16;37.10;1.00
50560;DHT22;36510;52.610;13.468;2022-08-04T12:47:11;37.80;1.00
50560;DHT22;36510;52.610;13.468;2022-08-04T12:52:07;37.60;1.00
50560;DHT22;36510;52.610;13.468;2022-08-04T12:56:58;37.80;1.00
50560;DHT22;36510;52.610;13.468;2022-08-04T13:01:50;38.00;1.00
50560;DHT22;36510;52.610;13.468;2022-08-04T13:06:43;37.70;1.00
50560;DHT22;36510;52.610;13.468;2022-08-04T13:11:38;37.60;1.00
50560;DHT22;36510;52.610;13.468;2022-08-04T13:16:30;37.60;1.00
50560;DHT22;36510;52.610;13.468;2022-08-04T13:21:22;37.50;1.00
50560;DHT22;36510;52.610;13.468;2022-08-04T13:26:16;37.40;1.00
50560;DHT22;36510;52.610;13.468;2022-08-04T13:31:10;37.40;1.00
50560;DHT22;36510;52.610;13.468;2022-08-04T13:36:03;37.50;1.00
50560;DHT22;36510;52.610;13.468;2022-08-04T13:41:01;37.10;1.00
50560;DHT22;36510;52.610;13.468;2022-08-04T13:45:57;37.10;1.00
50560;DHT22;36510;52.610;13.468;2022-08-04T13:50:48;37.10;1.00
50560;DHT22;36510;52.610;13.468;2022-08-04T13:55:39;36.90;1.00
50560;DHT22;36510;52.610;13.468;2022-08-04T14:00:51;36.80;1.00
50560;DHT22;36510;52.610;13.468;2022-08-04T14:05:42;36.70;1.00
50560;DHT22;36510;52.610;13.468;2022-08-04T14:10:35;36.40;1.00
50560;DHT22;36510;52.610;13.468;2022-08-04T14:15:40;36.50;1.00
50560;DHT22;36510;52.610;13.468;2022-08-04T14:20:31;36.60;1.00
50560;DHT22;36510;52.610;13.468;2022-08-04T14:25:27;36.60;1.00
50560;DHT22;36510;52.610;13.468;2022-08-04T14:30:26;36.70;1.00
50560;DHT22;36510;52.610;13.468;2022-08-04T14:35:17;36.70;1.00
50560;DHT22;36510;52.610;13.468;2022-08-04T14:40:22;36.90;1.00
50560;DHT22;36510;52.610;13.468;2022-08-04T14:45:13;36.80;1.00
50560;DHT22;36510;52.610;13.468;2022-08-04T14:50:05;36.90;1.00
50560;DHT22;36510;52.610;13.468;2022-08-04T14:54:55;36.70;1.00
50560;DHT22;36510;52.610;13.468;2022-08-04T14:59:47;36.70;1.00
50560;DHT22;36510;52.610;13.468;2022-08-04T15:04:39;36.60;1.00
50560;DHT22;36510;52.610;13.468;2022-08-04T15:09:31;36.70;1.00
50560;DHT22;36510;52.610;13.468;2022-08-04T15:14:22;36.60;1.00
50560;DHT22;36510;52.610;13.468;2022-08-04T15:19:14;36.60;1.00
50560;DHT22;36510;52.610;13.468;2022-08-04T15:24:05;36.70;1.00
50560;DHT22;36510;52.610;13.468;2022-08-04T15:29:02;36.70;1.00
50560;DHT22;36510;52.610;13.468;2022-08-04T15:33:55;36.60;1.00
50560;DHT22;36510;52.610;13.468;2022-08-04T15:44:37;36.50;1.00
50560;DHT22;36510;52.610;13.468;2022-08-04T15:49:32;36.40;1.00
50560;DHT22;36510;52.610;13.468;2022-08-04T15:54:23;36.40;1.00
50560;DHT22;36510;52.610;13.468;2022-08-04T15:59:14;36.30;1.00
50560;DHT22;36510;52.610;13.468;2022-08-04T16:04:23;36.30;1.00
50560;DHT22;36510;52.610;13.468;2022-08-04T16:09:22;36.20;1.00
50560;DHT22;36510;52.610;13.468;2022-08-04T16:14:13;36.20;1.00
50560;DHT22;36510;52.610;13.468;2022-08-04T16:24:13;36.00;1.00
50560;DHT22;36510;52.610;13.468;2022-08-04T16:34:18;35.70;1.00
50560;DHT22;36510;52.610;13.468;2022-08-04T16:39:17;35.60;1.00
50560;DHT22;36510;52.610;13.468;2022-08-04T16:44:33;35.70;1.00
50560;DHT22;36510;52.610;13.468;2022-08-04T16:49:27;35.80;1.00
50560;DHT22;36510;52.610;13.468;2022-08-04T16:54:18;35.70;1.00
50560;DHT22;36510;52.610;13.468;2022-08-04T16:59:10;35.70;1.00
50560;DHT22;36510;52.610;13.468;2022-08-04T17:04:02;35.70;1.00
50560;DHT22;36510;52.610;13.468;2022-08-04T17:08:56;35.70;1.00
50560;DHT22;36510;52.610;13.468;2022-08-04T17:13:46;35.70;1.00
50560;DHT22;36510;52.610;13.468;2022-08-04T17:18:39;35.60;1.00
50560;DHT22;36510;52.610;13.468;2022-08-04T17:23:35;35.60;1.00
50560;DHT22;36510;52.610;13.468;2022-08-04T17:28:26;35.30;1.00
50560;DHT22;36510;52.610;13.468;2022-08-04T17:33:17;35.20;1.00
50560;DHT22;36510;52.610;13.468;2022-08-04T17:38:07;35.10;1.00
50560;DHT22;36510;52.610;13.468;2022-08-04T17:43:05;35.10;1.00
50560;DHT22;36510;52.610;13.468;2022-08-04T17:47:56;35.00;1.00
50560;DHT22;36510;52.610;13.468;2022-08-04T17:52:57;35.00;1.00
50560;DHT22;36510;52.610;13.468;2022-08-04T17:57:48;35.00;1.00
50560;DHT22;36510;52.610;13.468;2022-08-04T18:02:58;34.90;1.00
50560;DHT22;36510;52.610;13.468;2022-08-04T18:07:49;34.80;1.00
50560;DHT22;36510;52.610;13.468;2022-08-04T18:12:39;34.80;1.00
50560;DHT22;36510;52.610;13.468;2022-08-04T18:17:41;34.60;1.00
50560;DHT22;36510;52.610;13.468;2022-08-04T18:22:32;34.40;1.50
50560;DHT22;36510;52.610;13.468;2022-08-04T18:27:25;34.20;1.70
50560;DHT22;36510;52.610;13.468;2022-08-04T18:32:16;34.00;2.00
50560;DHT22;36510;52.610;13.468;2022-08-04T18:37:07;33.80;3.30
50560;DHT22;36510;52.610;13.468;2022-08-04T18:41:57;33.60;4.90
50560;DHT22;36510;52.610;13.468;2022-08-04T18:46:48;33.40;5.40
50560;DHT22;36510;52.610;13.468;2022-08-04T18:51:38;33.10;6.30
50560;DHT22;36510;52.610;13.468;2022-08-04T18:56:30;32.90;7.30
50560;DHT22;36510;52.610;13.468;2022-08-04T19:01:21;32.70;8.30
50560;DHT22;36510;52.610;13.468;2022-08-04T19:06:11;32.50;8.40
50560;DHT22;36510;52.610;13.468;2022-08-04T19:11:04;32.30;8.50
50560;DHT22;36510;52.610;13.468;2022-08-04T19:15:54;32.10;8.20
50560;DHT22;36510;52.610;13.468;2022-08-04T19:20:45;32.00;9.00
50560;DHT22;36510;52.610;13.468;2022-08-04T19:25:36;31.80;9.90
50560;DHT22;36510;52.610;13.468;2022-08-04T19:30:28;31.70;11.10
50560;DHT22;36510;52.610;13.468;2022-08-04T19:35:19;31.50;11.00
50560;DHT22;36510;52.610;13.468;2022-08-04T19:40:10;31.30;11.00
50560;DHT22;36510;52.610;13.468;2022-08-04T19:45:03;31.30;12.90
50560;DHT22;36510;52.610;13.468;2022-08-04T19:49:54;31.10;12.30
50560;DHT22;36510;52.610;13.468;2022-08-04T19:54:44;30.90;12.10
50560;DHT22;36510;52.610;13.468;2022-08-04T19:59:35;30.80;13.10
50560;DHT22;36510;52.610;13.468;2022-08-04T20:04:26;30.70;13.10
50560;DHT22;36510;52.610;13.468;2022-08-04T20:09:16;30.50;14.60
50560;DHT22;36510;52.610;13.468;2022-08-04T20:14:07;30.30;15.30
50560;DHT22;36510;52.610;13.468;2022-08-04T20:18:58;30.20;16.10
50560;DHT22;36510;52.610;13.468;2022-08-04T20:23:48;30.10;16.50
50560;DHT22;36510;52.610;13.468;2022-08-04T20:28:39;30.00;17.10
50560;DHT22;36510;52.610;13.468;2022-08-04T20:33:30;29.90;16.80
50560;DHT22;36510;52.610;13.468;2022-08-04T20:38:20;29.70;16.80
50560;DHT22;36510;52.610;13.468;2022-08-04T20:43:11;29.60;13.90
50560;DHT22;36510;52.610;13.468;2022-08-04T20:48:01;29.60;15.80
50560;DHT22;36510;52.610;13.468;2022-08-04T20:52:52;29.50;15.10
50560;DHT22;36510;52.610;13.468;2022-08-04T20:57:43;29.50;15.10
50560;DHT22;36510;52.610;13.468;2022-08-04T21:02:34;29.50;13.20
50560;DHT22;36510;52.610;13.468;2022-08-04T21:07:25;29.50;13.50
50560;DHT22;36510;52.610;13.468;2022-08-04T21:12:16;29.50;13.40
50560;DHT22;36510;52.610;13.468;2022-08-04T21:17:06;29.50;13.20
50560;DHT22;36510;52.610;13.468;2022-08-04T21:21:57;29.60;12.40
50560;DHT22;36510;52.610;13.468;2022-08-04T21:26:55;29.70;10.80
50560;DHT22;36510;52.610;13.468;2022-08-04T21:31:46;30.00;9.10
50560;DHT22;36510;52.610;13.468;2022-08-04T21:36:37;30.20;8.90
50560;DHT22;36510;52.610;13.468;2022-08-04T21:41:28;30.20;9.20
50560;DHT22;36510;52.610;13.468;2022-08-04T21:46:21;30.20;9.20
50560;DHT22;36510;52.610;13.468;2022-08-04T21:51:19;30.00;10.70
50560;DHT22;36510;52.610;13.468;2022-08-04T21:56:10;29.80;11.00
50560;DHT22;36510;52.610;13.468;2022-08-04T22:01:01;29.60;11.20
50560;DHT22;36510;52.610;13.468;2022-08-04T22:05:52;29.70;11.70
50560;DHT22;36510;52.610;13.468;2022-08-04T22:10:42;29.70;12.30
50560;DHT22;36510;52.610;13.468;2022-08-04T22:15:32;29.40;12.20
50560;DHT22;36510;52.610;13.468;2022-08-04T22:20:23;29.30;11.10
50560;DHT22;36510;52.610;13.468;2022-08-04T22:25:14;29.30;11.10
50560;DHT22;36510;52.610;13.468;2022-08-04T22:30:05;29.30;11.10
50560;DHT22;36510;52.610;13.468;2022-08-04T22:34:56;29.30;11.40
50560;DHT22;36510;52.610;13.468;2022-08-04T22:39:47;29.20;11.20
50560;DHT22;36510;52.610;13.468;2022-08-04T22:44:37;29.20;11.50
50560;DHT22;36510;52.610;13.468;2022-08-04T22:49:27;29.30;11.40
50560;DHT22;36510;52.610;13.468;2022-08-04T22:54:18;29.10;11.40
50560;DHT22;36510;52.610;13.468;2022-08-04T22:59:08;29.00;11.60
50560;DHT22;36510;52.610;13.468;2022-08-04T23:03:59;29.00;11.70
50560;DHT22;36510;52.610;13.468;2022-08-04T23:08:49;28.90;11.70
50560;DHT22;36510;52.610;13.468;2022-08-04T23:13:40;28.90;11.80
50560;DHT22;36510;52.610;13.468;2022-08-04T23:18:30;28.80;11.90
50560;DHT22;36510;52.610;13.468;2022-08-04T23:23:21;28.90;11.70
50560;DHT22;36510;52.610;13.468;2022-08-04T23:28:11;28.90;11.80
50560;DHT22;36510;52.610;13.468;2022-08-04T23:33:02;28.80;12.00
50560;DHT22;36510;52.610;13.468;2022-08-04T23:37:52;28.80;12.10
50560;DHT22;36510;52.610;13.468;2022-08-04T23:42:43;28.90;12.40
50560;DHT22;36510;52.610;13.468;2022-08-04T23:47:33;28.80;13.00
50560;DHT22;36510;52.610;13.468;2022-08-04T23:52:23;28.70;13.30
50560;DHT22;36510;52.610;13.468;2022-08-04T23:57:14;28.70;13.30
